sensor_id;sensor_type;location;lat;lon;timestamp;P1;durP1;ratioP1;P2;durP2;ratioP2
18853;SDS011;9556;49.374;19.446;2024-02-23T00:00:33;1.67;;;1.10;;
18853;SDS011;9556;49.374;19.446;2024-02-23T00:03:00;4.07;;;1.00;;
18853;SDS011;9556;49.374;19.446;2024-02-23T00:05:27;1.23;;;1.10;;
18853;SDS011;9556;49.374;19.446;2024-02-23T00:07:54;1.67;;;1.25;;
18853;SDS011;9556;49.374;19.446;2024-02-23T00:10:23;1.80;;;1.20;;
18853;SDS011;9556;49.374;19.446;2024-02-23T00:12:50;2.55;;;1.75;;
18853;SDS011;9556;49.374;19.446;2024-02-23T00:15:18;1.75;;;1.55;;
18853;SDS011;9556;49.374;19.446;2024-02-23T00:17:45;2.25;;;1.20;;
18853;SDS011;9556;49.374;19.446;2024-02-23T00:20:12;1.38;;;1.10;;
18853;SDS011;9556;49.374;19.446;2024-02-23T00:22:40;2.20;;;1.20;;
18853;SDS011;9556;49.374;19.446;2024-02-23T00:25:07;1.83;;;1.10;;
18853;SDS011;9556;49.374;19.446;2024-02-23T00:27:35;1.25;;;1.10;;
18853;SDS011;9556;49.374;19.446;2024-02-23T00:30:05;2.33;;;1.10;;
18853;SDS011;9556;49.374;19.446;2024-02-23T00:32:32;1.65;;;1.13;;
18853;SDS011;9556;49.374;19.446;2024-02-23T00:34:59;1.77;;;0.90;;
18853;SDS011;9556;49.374;19.446;2024-02-23T00:37:26;1.02;;;0.88;;
18853;SDS011;9556;49.374;19.446;2024-02-23T00:39:54;2.58;;;1.02;;
18853;SDS011;9556;49.374;19.446;2024-02-23T00:42:21;1.63;;;1.20;;
18853;SDS011;9556;49.374;19.446;2024-02-23T00:44:49;1.42;;;0.98;;
18853;SDS011;9556;49.374;19.446;2024-02-23T00:47:16;1.38;;;1.10;;
18853;SDS011;9556;49.374;19.446;2024-02-23T00:49:43;1.13;;;0.90;;
18853;SDS011;9556;49.374;19.446;2024-02-23T00:52:11;1.58;;;1.10;;
18853;SDS011;9556;49.374;19.446;2024-02-23T00:54:38;1.63;;;1.05;;
18853;SDS011;9556;49.374;19.446;2024-02-23T00:57:05;1.70;;;1.20;;
18853;SDS011;9556;49.374;19.446;2024-02-23T00:59:32;1.88;;;1.10;;
18853;SDS011;9556;49.374;19.446;2024-02-23T01:02:00;1.27;;;1.00;;
18853;SDS011;9556;49.374;19.446;2024-02-23T01:04:28;1.58;;;1.20;;
18853;SDS011;9556;49.374;19.446;2024-02-23T01:06:55;1.00;;;0.90;;
18853;SDS011;9556;49.374;19.446;2024-02-23T01:09:22;3.28;;;1.27;;
18853;SDS011;9556;49.374;19.446;2024-02-23T01:11:49;1.85;;;1.55;;
18853;SDS011;9556;49.374;19.446;2024-02-23T01:14:16;2.13;;;1.45;;
18853;SDS011;9556;49.374;19.446;2024-02-23T01:16:43;2.78;;;1.50;;
18853;SDS011;9556;49.374;19.446;2024-02-23T01:19:12;2.05;;;1.08;;
18853;SDS011;9556;49.374;19.446;2024-02-23T01:21:40;1.20;;;1.00;;
18853;SDS011;9556;49.374;19.446;2024-02-23T01:24:08;1.38;;;1.05;;
18853;SDS011;9556;49.374;19.446;2024-02-23T01:26:35;1.38;;;1.10;;
18853;SDS011;9556;49.374;19.446;2024-02-23T01:29:02;0.80;;;0.75;;
18853;SDS011;9556;49.374;19.446;2024-02-23T01:31:29;1.30;;;0.90;;
18853;SDS011;9556;49.374;19.446;2024-02-23T01:33:56;1.80;;;1.02;;
18853;SDS011;9556;49.374;19.446;2024-02-23T01:36:25;1.73;;;1.10;;
18853;SDS011;9556;49.374;19.446;2024-02-23T01:38:52;1.83;;;1.10;;
18853;SDS011;9556;49.374;19.446;2024-02-23T01:41:20;1.30;;;1.10;;
18853;SDS011;9556;49.374;19.446;2024-02-23T01:43:48;1.15;;;0.95;;
18853;SDS011;9556;49.374;19.446;2024-02-23T01:46:16;1.48;;;1.10;;
18853;SDS011;9556;49.374;19.446;2024-02-23T01:48:44;1.40;;;1.05;;
18853;SDS011;9556;49.374;19.446;2024-02-23T01:51:11;1.55;;;1.10;;
18853;SDS011;9556;49.374;19.446;2024-02-23T01:53:40;1.90;;;1.10;;
18853;SDS011;9556;49.374;19.446;2024-02-23T01:56:07;2.22;;;1.15;;
18853;SDS011;9556;49.374;19.446;2024-02-23T01:58:35;2.25;;;1.17;;
18853;SDS011;9556;49.374;19.446;2024-02-23T02:01:04;3.83;;;1.00;;
18853;SDS011;9556;49.374;19.446;2024-02-23T02:03:31;1.40;;;1.08;;
18853;SDS011;9556;49.374;19.446;2024-02-23T02:05:59;3.60;;;1.20;;
18853;SDS011;9556;49.374;19.446;2024-02-23T02:08:26;1.60;;;1.10;;
18853;SDS011;9556;49.374;19.446;2024-02-23T02:10:55;2.05;;;1.35;;
18853;SDS011;9556;49.374;19.446;2024-02-23T02:13:22;1.60;;;1.30;;
18853;SDS011;9556;49.374;19.446;2024-02-23T02:15:49;2.17;;;1.50;;
18853;SDS011;9556;49.374;19.446;2024-02-23T02:18:16;1.30;;;1.20;;
18853;SDS011;9556;49.374;19.446;2024-02-23T02:20:48;1.95;;;1.17;;
18853;SDS011;9556;49.374;19.446;2024-02-23T02:23:18;1.73;;;1.10;;
18853;SDS011;9556;49.374;19.446;2024-02-23T02:25:45;1.27;;;1.10;;
18853;SDS011;9556;49.374;19.446;2024-02-23T02:28:13;2.08;;;1.02;;
18853;SDS011;9556;49.374;19.446;2024-02-23T02:30:40;1.33;;;0.90;;
18853;SDS011;9556;49.374;19.446;2024-02-23T02:33:08;1.20;;;1.10;;
18853;SDS011;9556;49.374;19.446;2024-02-23T02:35:35;1.85;;;1.10;;
18853;SDS011;9556;49.374;19.446;2024-02-23T02:38:02;1.92;;;1.20;;
18853;SDS011;9556;49.374;19.446;2024-02-23T02:40:29;2.25;;;1.00;;
18853;SDS011;9556;49.374;19.446;2024-02-23T02:42:56;1.45;;;1.10;;
18853;SDS011;9556;49.374;19.446;2024-02-23T02:45:25;2.80;;;0.80;;
18853;SDS011;9556;49.374;19.446;2024-02-23T02:47:52;1.25;;;0.90;;
18853;SDS011;9556;49.374;19.446;2024-02-23T02:50:19;1.92;;;1.10;;
18853;SDS011;9556;49.374;19.446;2024-02-23T02:52:46;1.10;;;1.00;;
18853;SDS011;9556;49.374;19.446;2024-02-23T02:55:14;1.20;;;0.85;;
18853;SDS011;9556;49.374;19.446;2024-02-23T02:57:41;1.10;;;1.00;;
18853;SDS011;9556;49.374;19.446;2024-02-23T03:00:09;2.50;;;1.00;;
18853;SDS011;9556;49.374;19.446;2024-02-23T03:02:38;1.00;;;0.90;;
18853;SDS011;9556;49.374;19.446;2024-02-23T03:05:06;1.75;;;1.05;;
18853;SDS011;9556;49.374;19.446;2024-02-23T03:07:33;1.42;;;1.00;;
18853;SDS011;9556;49.374;19.446;2024-02-23T03:10:00;1.17;;;1.02;;
18853;SDS011;9556;49.374;19.446;2024-02-23T03:12:27;1.58;;;1.25;;
18853;SDS011;9556;49.374;19.446;2024-02-23T03:14:54;2.17;;;1.40;;
18853;SDS011;9556;49.374;19.446;2024-02-23T03:17:22;1.95;;;1.15;;
18853;SDS011;9556;49.374;19.446;2024-02-23T03:19:50;1.88;;;1.15;;
18853;SDS011;9556;49.374;19.446;2024-02-23T03:22:18;1.20;;;1.00;;
18853;SDS011;9556;49.374;19.446;2024-02-23T03:24:45;1.08;;;0.90;;
18853;SDS011;9556;49.374;19.446;2024-02-23T03:27:12;1.00;;;0.82;;
18853;SDS011;9556;49.374;19.446;2024-02-23T03:29:39;1.17;;;1.00;;
18853;SDS011;9556;49.374;19.446;2024-02-23T03:32:07;1.40;;;1.05;;
18853;SDS011;9556;49.374;19.446;2024-02-23T03:34:34;2.03;;;0.88;;
18853;SDS011;9556;49.374;19.446;2024-02-23T03:37:03;0.70;;;0.70;;
18853;SDS011;9556;49.374;19.446;2024-02-23T03:39:30;1.13;;;0.88;;
18853;SDS011;9556;49.374;19.446;2024-02-23T03:41:58;1.15;;;1.00;;
18853;SDS011;9556;49.374;19.446;2024-02-23T03:44:25;1.40;;;1.05;;
18853;SDS011;9556;49.374;19.446;2024-02-23T03:46:52;1.10;;;1.00;;
18853;SDS011;9556;49.374;19.446;2024-02-23T03:49:19;2.28;;;1.40;;
18853;SDS011;9556;49.374;19.446;2024-02-23T03:51:47;1.15;;;1.00;;
18853;SDS011;9556;49.374;19.446;2024-02-23T03:54:16;1.10;;;1.00;;
18853;SDS011;9556;49.374;19.446;2024-02-23T03:56:43;0.98;;;0.80;;
18853;SDS011;9556;49.374;19.446;2024-02-23T03:59:10;1.17;;;0.90;;
18853;SDS011;9556;49.374;19.446;2024-02-23T04:01:37;1.13;;;0.90;;
18853;SDS011;9556;49.374;19.446;2024-02-23T04:04:04;1.20;;;1.00;;
18853;SDS011;9556;49.374;19.446;2024-02-23T04:06:32;1.23;;;0.90;;
18853;SDS011;9556;49.374;19.446;2024-02-23T04:09:00;1.38;;;1.08;;
18853;SDS011;9556;49.374;19.446;2024-02-23T04:11:31;1.55;;;1.10;;
18853;SDS011;9556;49.374;19.446;2024-02-23T04:13:58;1.05;;;0.90;;
18853;SDS011;9556;49.374;19.446;2024-02-23T04:16:25;2.15;;;1.10;;
18853;SDS011;9556;49.374;19.446;2024-02-23T04:18:53;1.00;;;0.80;;
18853;SDS011;9556;49.374;19.446;2024-02-23T04:21:21;1.00;;;0.90;;
18853;SDS011;9556;49.374;19.446;2024-02-23T04:23:48;1.30;;;1.10;;
18853;SDS011;9556;49.374;19.446;2024-02-23T04:26:15;1.95;;;0.80;;
18853;SDS011;9556;49.374;19.446;2024-02-23T04:28:44;1.23;;;0.93;;
18853;SDS011;9556;49.374;19.446;2024-02-23T04:31:11;1.25;;;0.80;;
18853;SDS011;9556;49.374;19.446;2024-02-23T04:33:38;1.30;;;0.90;;
18853;SDS011;9556;49.374;19.446;2024-02-23T04:36:06;1.05;;;0.90;;
18853;SDS011;9556;49.374;19.446;2024-02-23T04:38:33;1.50;;;0.85;;
18853;SDS011;9556;49.374;19.446;2024-02-23T04:41:02;0.75;;;0.70;;
18853;SDS011;9556;49.374;19.446;2024-02-23T04:43:30;0.80;;;0.80;;
18853;SDS011;9556;49.374;19.446;2024-02-23T04:45:58;0.80;;;0.77;;
18853;SDS011;9556;49.374;19.446;2024-02-23T04:48:26;1.42;;;0.90;;
18853;SDS011;9556;49.374;19.446;2024-02-23T04:50:56;1.45;;;0.80;;
18853;SDS011;9556;49.374;19.446;2024-02-23T04:53:23;1.05;;;0.70;;
18853;SDS011;9556;49.374;19.446;2024-02-23T04:55:50;0.80;;;0.75;;
18853;SDS011;9556;49.374;19.446;2024-02-23T04:58:17;0.85;;;0.82;;
18853;SDS011;9556;49.374;19.446;2024-02-23T05:00:45;2.40;;;0.82;;
18853;SDS011;9556;49.374;19.446;2024-02-23T05:03:14;0.90;;;0.80;;
18853;SDS011;9556;49.374;19.446;2024-02-23T05:05:41;1.50;;;0.93;;
18853;SDS011;9556;49.374;19.446;2024-02-23T05:08:08;1.15;;;0.88;;
18853;SDS011;9556;49.374;19.446;2024-02-23T05:10:36;1.15;;;0.88;;
18853;SDS011;9556;49.374;19.446;2024-02-23T05:13:03;0.80;;;0.80;;
18853;SDS011;9556;49.374;19.446;2024-02-23T05:15:30;0.90;;;0.80;;
18853;SDS011;9556;49.374;19.446;2024-02-23T05:17:57;1.00;;;0.80;;
18853;SDS011;9556;49.374;19.446;2024-02-23T05:20:26;2.92;;;0.90;;
18853;SDS011;9556;49.374;19.446;2024-02-23T05:22:53;0.82;;;0.80;;
18853;SDS011;9556;49.374;19.446;2024-02-23T05:25:20;0.85;;;0.60;;
18853;SDS011;9556;49.374;19.446;2024-02-23T05:27:47;1.00;;;0.80;;
18853;SDS011;9556;49.374;19.446;2024-02-23T05:30:14;0.73;;;0.70;;
18853;SDS011;9556;49.374;19.446;2024-02-23T05:32:41;0.65;;;0.65;;
18853;SDS011;9556;49.374;19.446;2024-02-23T05:35:09;0.90;;;0.70;;
18853;SDS011;9556;49.374;19.446;2024-02-23T05:37:37;0.88;;;0.80;;
18853;SDS011;9556;49.374;19.446;2024-02-23T05:40:05;0.80;;;0.80;;
18853;SDS011;9556;49.374;19.446;2024-02-23T05:42:35;0.65;;;0.65;;
18853;SDS011;9556;49.374;19.446;2024-02-23T05:45:03;1.05;;;0.88;;
18853;SDS011;9556;49.374;19.446;2024-02-23T05:47:33;0.80;;;0.80;;
18853;SDS011;9556;49.374;19.446;2024-02-23T05:50:01;0.80;;;0.80;;
18853;SDS011;9556;49.374;19.446;2024-02-23T05:52:28;1.08;;;0.65;;
18853;SDS011;9556;49.374;19.446;2024-02-23T05:54:57;0.80;;;0.80;;
18853;SDS011;9556;49.374;19.446;2024-02-23T05:57:25;0.73;;;0.70;;
18853;SDS011;9556;49.374;19.446;2024-02-23T05:59:52;4.03;;;0.75;;
18853;SDS011;9556;49.374;19.446;2024-02-23T06:02:20;0.60;;;0.60;;
18853;SDS011;9556;49.374;19.446;2024-02-23T06:04:47;1.70;;;0.60;;
18853;SDS011;9556;49.374;19.446;2024-02-23T06:07:14;1.20;;;0.77;;
18853;SDS011;9556;49.374;19.446;2024-02-23T06:09:41;1.27;;;0.90;;
18853;SDS011;9556;49.374;19.446;2024-02-23T06:12:10;1.67;;;0.70;;
18853;SDS011;9556;49.374;19.446;2024-02-23T06:14:37;3.83;;;0.80;;
18853;SDS011;9556;49.374;19.446;2024-02-23T06:17:05;3.83;;;0.88;;
18853;SDS011;9556;49.374;19.446;2024-02-23T06:19:33;0.80;;;0.60;;
18853;SDS011;9556;49.374;19.446;2024-02-23T06:22:00;0.80;;;0.60;;
18853;SDS011;9556;49.374;19.446;2024-02-23T06:24:27;0.65;;;0.55;;
18853;SDS011;9556;49.374;19.446;2024-02-23T06:26:55;0.60;;;0.60;;
18853;SDS011;9556;49.374;19.446;2024-02-23T06:29:24;2.80;;;0.60;;
18853;SDS011;9556;49.374;19.446;2024-02-23T06:31:51;1.42;;;0.70;;
18853;SDS011;9556;49.374;19.446;2024-02-23T06:34:18;4.30;;;0.70;;
18853;SDS011;9556;49.374;19.446;2024-02-23T06:36:46;0.68;;;0.52;;
18853;SDS011;9556;49.374;19.446;2024-02-23T06:39:13;1.52;;;0.60;;
18853;SDS011;9556;49.374;19.446;2024-02-23T06:41:43;1.85;;;0.70;;
18853;SDS011;9556;49.374;19.446;2024-02-23T06:44:10;1.25;;;0.60;;
18853;SDS011;9556;49.374;19.446;2024-02-23T06:46:38;0.70;;;0.60;;
18853;SDS011;9556;49.374;19.446;2024-02-23T06:49:06;0.90;;;0.80;;
18853;SDS011;9556;49.374;19.446;2024-02-23T06:51:33;1.17;;;0.70;;
18853;SDS011;9556;49.374;19.446;2024-02-23T06:54:00;1.95;;;0.60;;
18853;SDS011;9556;49.374;19.446;2024-02-23T06:56:28;0.70;;;0.60;;
18853;SDS011;9556;49.374;19.446;2024-02-23T06:58:56;0.90;;;0.65;;
18853;SDS011;9556;49.374;19.446;2024-02-23T07:01:23;0.60;;;0.52;;
18853;SDS011;9556;49.374;19.446;2024-02-23T07:03:51;0.65;;;0.60;;
18853;SDS011;9556;49.374;19.446;2024-02-23T07:06:19;0.70;;;0.50;;
18853;SDS011;9556;49.374;19.446;2024-02-23T07:08:46;0.60;;;0.60;;
18853;SDS011;9556;49.374;19.446;2024-02-23T07:11:13;0.50;;;0.50;;
18853;SDS011;9556;49.374;19.446;2024-02-23T07:13:42;1.13;;;0.70;;
18853;SDS011;9556;49.374;19.446;2024-02-23T07:16:09;0.68;;;0.50;;
18853;SDS011;9556;49.374;19.446;2024-02-23T07:18:36;0.60;;;0.60;;
18853;SDS011;9556;49.374;19.446;2024-02-23T07:21:05;1.35;;;0.80;;
18853;SDS011;9556;49.374;19.446;2024-02-23T07:23:32;1.02;;;0.90;;
18853;SDS011;9556;49.374;19.446;2024-02-23T07:25:59;1.35;;;0.70;;
18853;SDS011;9556;49.374;19.446;2024-02-23T07:28:26;1.77;;;1.23;;
18853;SDS011;9556;49.374;19.446;2024-02-23T07:30:54;2.08;;;1.35;;
18853;SDS011;9556;49.374;19.446;2024-02-23T07:33:21;2.05;;;1.48;;
18853;SDS011;9556;49.374;19.446;2024-02-23T07:35:48;2.33;;;1.48;;
18853;SDS011;9556;49.374;19.446;2024-02-23T07:38:16;1.27;;;0.90;;
18853;SDS011;9556;49.374;19.446;2024-02-23T07:40:44;1.45;;;1.10;;
18853;SDS011;9556;49.374;19.446;2024-02-23T07:43:11;1.88;;;1.40;;
18853;SDS011;9556;49.374;19.446;2024-02-23T07:45:39;2.78;;;1.70;;
18853;SDS011;9556;49.374;19.446;2024-02-23T07:48:06;0.95;;;0.70;;
18853;SDS011;9556;49.374;19.446;2024-02-23T07:50:33;2.85;;;1.63;;
18853;SDS011;9556;49.374;19.446;2024-02-23T07:53:01;2.22;;;1.40;;
18853;SDS011;9556;49.374;19.446;2024-02-23T07:55:30;1.27;;;1.00;;
18853;SDS011;9556;49.374;19.446;2024-02-23T07:57:57;1.75;;;1.45;;
18853;SDS011;9556;49.374;19.446;2024-02-23T08:00:26;1.73;;;1.20;;
18853;SDS011;9556;49.374;19.446;2024-02-23T08:02:53;1.77;;;1.00;;
18853;SDS011;9556;49.374;19.446;2024-02-23T08:05:21;4.15;;;1.00;;
18853;SDS011;9556;49.374;19.446;2024-02-23T08:07:49;3.00;;;0.93;;
18853;SDS011;9556;49.374;19.446;2024-02-23T08:10:16;2.60;;;1.15;;
18853;SDS011;9556;49.374;19.446;2024-02-23T08:12:44;3.80;;;0.88;;
18853;SDS011;9556;49.374;19.446;2024-02-23T08:15:12;4.68;;;0.70;;
18853;SDS011;9556;49.374;19.446;2024-02-23T08:17:39;2.28;;;0.90;;
18853;SDS011;9556;49.374;19.446;2024-02-23T08:20:06;1.80;;;0.80;;
18853;SDS011;9556;49.374;19.446;2024-02-23T08:22:34;11.05;;;1.33;;
18853;SDS011;9556;49.374;19.446;2024-02-23T08:25:01;5.68;;;0.85;;
18853;SDS011;9556;49.374;19.446;2024-02-23T08:27:28;1.60;;;0.80;;
18853;SDS011;9556;49.374;19.446;2024-02-23T08:29:57;4.47;;;1.55;;
18853;SDS011;9556;49.374;19.446;2024-02-23T08:32:24;3.58;;;1.70;;
18853;SDS011;9556;49.374;19.446;2024-02-23T08:34:51;3.58;;;1.60;;
18853;SDS011;9556;49.374;19.446;2024-02-23T08:37:24;4.07;;;1.90;;
18853;SDS011;9556;49.374;19.446;2024-02-23T08:39:51;7.28;;;2.58;;
18853;SDS011;9556;49.374;19.446;2024-02-23T08:42:18;6.55;;;3.20;;
18853;SDS011;9556;49.374;19.446;2024-02-23T08:44:45;5.07;;;2.38;;
18853;SDS011;9556;49.374;19.446;2024-02-23T08:47:14;6.45;;;2.53;;
18853;SDS011;9556;49.374;19.446;2024-02-23T08:49:41;5.82;;;2.63;;
18853;SDS011;9556;49.374;19.446;2024-02-23T08:52:09;4.47;;;2.50;;
18853;SDS011;9556;49.374;19.446;2024-02-23T08:54:36;3.53;;;1.90;;
18853;SDS011;9556;49.374;19.446;2024-02-23T08:57:04;5.53;;;1.60;;
18853;SDS011;9556;49.374;19.446;2024-02-23T08:59:31;7.32;;;1.27;;
18853;SDS011;9556;49.374;19.446;2024-02-23T09:01:58;2.40;;;1.63;;
18853;SDS011;9556;49.374;19.446;2024-02-23T09:04:27;56.35;;;3.85;;
18853;SDS011;9556;49.374;19.446;2024-02-23T09:06:54;7.10;;;1.60;;
18853;SDS011;9556;49.374;19.446;2024-02-23T09:09:21;5.57;;;1.40;;
18853;SDS011;9556;49.374;19.446;2024-02-23T09:11:50;3.22;;;1.50;;
18853;SDS011;9556;49.374;19.446;2024-02-23T09:14:17;4.25;;;1.30;;
18853;SDS011;9556;49.374;19.446;2024-02-23T09:16:44;5.93;;;1.50;;
18853;SDS011;9556;49.374;19.446;2024-02-23T09:19:15;5.03;;;1.45;;
18853;SDS011;9556;49.374;19.446;2024-02-23T09:21:44;6.90;;;1.70;;
18853;SDS011;9556;49.374;19.446;2024-02-23T09:24:12;11.43;;;1.65;;
18853;SDS011;9556;49.374;19.446;2024-02-23T09:26:39;11.52;;;1.80;;
18853;SDS011;9556;49.374;19.446;2024-02-23T09:29:07;7.15;;;1.40;;
18853;SDS011;9556;49.374;19.446;2024-02-23T09:31:34;11.85;;;1.63;;
18853;SDS011;9556;49.374;19.446;2024-02-23T09:34:01;4.18;;;1.40;;
18853;SDS011;9556;49.374;19.446;2024-02-23T09:36:29;4.22;;;1.60;;
18853;SDS011;9556;49.374;19.446;2024-02-23T09:38:57;4.22;;;1.52;;
18853;SDS011;9556;49.374;19.446;2024-02-23T09:41:27;8.77;;;1.80;;
18853;SDS011;9556;49.374;19.446;2024-02-23T09:43:54;4.80;;;1.67;;
18853;SDS011;9556;49.374;19.446;2024-02-23T09:46:23;9.32;;;1.52;;
18853;SDS011;9556;49.374;19.446;2024-02-23T09:48:50;8.55;;;2.30;;
18853;SDS011;9556;49.374;19.446;2024-02-23T09:51:17;9.88;;;1.90;;
18853;SDS011;9556;49.374;19.446;2024-02-23T09:53:45;5.63;;;1.75;;
18853;SDS011;9556;49.374;19.446;2024-02-23T09:56:15;3.83;;;1.55;;
18853;SDS011;9556;49.374;19.446;2024-02-23T09:58:44;5.20;;;2.30;;
18853;SDS011;9556;49.374;19.446;2024-02-23T10:01:14;6.10;;;2.28;;
18853;SDS011;9556;49.374;19.446;2024-02-23T10:03:44;6.80;;;2.13;;
18853;SDS011;9556;49.374;19.446;2024-02-23T10:06:12;2.83;;;1.25;;
18853;SDS011;9556;49.374;19.446;2024-02-23T10:08:39;3.58;;;1.80;;
18853;SDS011;9556;49.374;19.446;2024-02-23T10:11:06;6.80;;;1.40;;
18853;SDS011;9556;49.374;19.446;2024-02-23T10:13:35;4.50;;;1.63;;
18853;SDS011;9556;49.374;19.446;2024-02-23T10:16:02;4.65;;;2.15;;
18853;SDS011;9556;49.374;19.446;2024-02-23T10:18:29;8.00;;;2.88;;
18853;SDS011;9556;49.374;19.446;2024-02-23T10:20:56;8.35;;;2.67;;
18853;SDS011;9556;49.374;19.446;2024-02-23T10:23:23;11.95;;;3.28;;
18853;SDS011;9556;49.374;19.446;2024-02-23T10:25:50;8.40;;;3.25;;
18853;SDS011;9556;49.374;19.446;2024-02-23T10:28:18;7.57;;;2.88;;
18853;SDS011;9556;49.374;19.446;2024-02-23T10:30:49;5.45;;;2.40;;
18853;SDS011;9556;49.374;19.446;2024-02-23T10:33:16;6.18;;;2.60;;
18853;SDS011;9556;49.374;19.446;2024-02-23T10:35:46;8.90;;;2.97;;
18853;SDS011;9556;49.374;19.446;2024-02-23T10:38:13;8.32;;;3.05;;
18853;SDS011;9556;49.374;19.446;2024-02-23T10:40:44;7.38;;;3.10;;
18853;SDS011;9556;49.374;19.446;2024-02-23T10:43:12;7.95;;;2.67;;
18853;SDS011;9556;49.374;19.446;2024-02-23T10:45:43;5.82;;;2.90;;
18853;SDS011;9556;49.374;19.446;2024-02-23T10:48:13;10.48;;;3.28;;
18853;SDS011;9556;49.374;19.446;2024-02-23T10:50:41;10.73;;;3.30;;
18853;SDS011;9556;49.374;19.446;2024-02-23T10:53:09;10.45;;;3.17;;
18853;SDS011;9556;49.374;19.446;2024-02-23T10:55:37;6.88;;;2.78;;
18853;SDS011;9556;49.374;19.446;2024-02-23T10:58:04;7.65;;;2.50;;
18853;SDS011;9556;49.374;19.446;2024-02-23T11:00:36;6.03;;;2.40;;
18853;SDS011;9556;49.374;19.446;2024-02-23T11:03:03;7.45;;;2.88;;
18853;SDS011;9556;49.374;19.446;2024-02-23T11:05:33;7.85;;;2.95;;
18853;SDS011;9556;49.374;19.446;2024-02-23T11:08:00;8.60;;;2.50;;
18853;SDS011;9556;49.374;19.446;2024-02-23T11:10:27;4.35;;;2.20;;
18853;SDS011;9556;49.374;19.446;2024-02-23T11:12:58;8.48;;;2.38;;
18853;SDS011;9556;49.374;19.446;2024-02-23T11:15:26;8.52;;;2.63;;
18853;SDS011;9556;49.374;19.446;2024-02-23T11:17:53;7.28;;;2.85;;
18853;SDS011;9556;49.374;19.446;2024-02-23T11:20:21;6.72;;;2.85;;
18853;SDS011;9556;49.374;19.446;2024-02-23T11:22:52;6.28;;;2.83;;
18853;SDS011;9556;49.374;19.446;2024-02-23T11:25:19;8.32;;;2.75;;
18853;SDS011;9556;49.374;19.446;2024-02-23T11:27:49;10.93;;;2.80;;
18853;SDS011;9556;49.374;19.446;2024-02-23T11:30:16;10.93;;;3.13;;
18853;SDS011;9556;49.374;19.446;2024-02-23T11:32:44;7.18;;;2.83;;
18853;SDS011;9556;49.374;19.446;2024-02-23T11:35:13;11.07;;;2.67;;
18853;SDS011;9556;49.374;19.446;2024-02-23T11:37:45;13.75;;;3.10;;
18853;SDS011;9556;49.374;19.446;2024-02-23T11:40:13;12.55;;;3.67;;
18853;SDS011;9556;49.374;19.446;2024-02-23T11:42:41;24.77;;;4.10;;
18853;SDS011;9556;49.374;19.446;2024-02-23T11:45:09;9.32;;;3.83;;
18853;SDS011;9556;49.374;19.446;2024-02-23T11:47:37;8.30;;;3.10;;
18853;SDS011;9556;49.374;19.446;2024-02-23T11:50:06;9.77;;;2.90;;
18853;SDS011;9556;49.374;19.446;2024-02-23T11:52:34;14.15;;;4.15;;
18853;SDS011;9556;49.374;19.446;2024-02-23T11:55:02;12.93;;;6.43;;
18853;SDS011;9556;49.374;19.446;2024-02-23T11:57:31;9.02;;;4.68;;
18853;SDS011;9556;49.374;19.446;2024-02-23T12:00:00;9.95;;;4.05;;
18853;SDS011;9556;49.374;19.446;2024-02-23T12:02:28;8.25;;;3.42;;
18853;SDS011;9556;49.374;19.446;2024-02-23T12:04:55;7.97;;;3.30;;
18853;SDS011;9556;49.374;19.446;2024-02-23T12:07:22;10.20;;;3.28;;
18853;SDS011;9556;49.374;19.446;2024-02-23T12:09:51;6.95;;;3.03;;
18853;SDS011;9556;49.374;19.446;2024-02-23T12:12:18;9.48;;;3.20;;
18853;SDS011;9556;49.374;19.446;2024-02-23T12:14:47;5.10;;;2.20;;
18853;SDS011;9556;49.374;19.446;2024-02-23T12:17:14;10.90;;;2.92;;
18853;SDS011;9556;49.374;19.446;2024-02-23T12:19:41;7.45;;;2.15;;
18853;SDS011;9556;49.374;19.446;2024-02-23T12:22:09;5.95;;;2.65;;
18853;SDS011;9556;49.374;19.446;2024-02-23T12:24:37;9.25;;;3.00;;
18853;SDS011;9556;49.374;19.446;2024-02-23T12:27:04;6.07;;;2.75;;
18853;SDS011;9556;49.374;19.446;2024-02-23T12:29:31;8.00;;;2.83;;
18853;SDS011;9556;49.374;19.446;2024-02-23T12:32:06;5.72;;;2.67;;
18853;SDS011;9556;49.374;19.446;2024-02-23T12:34:34;6.03;;;2.95;;
18853;SDS011;9556;49.374;19.446;2024-02-23T12:37:02;4.93;;;2.75;;
18853;SDS011;9556;49.374;19.446;2024-02-23T12:39:30;6.85;;;3.05;;
18853;SDS011;9556;49.374;19.446;2024-02-23T12:41:58;10.30;;;2.38;;
18853;SDS011;9556;49.374;19.446;2024-02-23T12:44:25;13.27;;;2.72;;
18853;SDS011;9556;49.374;19.446;2024-02-23T12:46:52;16.73;;;3.13;;
18853;SDS011;9556;49.374;19.446;2024-02-23T12:49:20;6.43;;;2.60;;
18853;SDS011;9556;49.374;19.446;2024-02-23T12:51:47;6.40;;;2.90;;
18853;SDS011;9556;49.374;19.446;2024-02-23T12:54:15;7.07;;;2.22;;
18853;SDS011;9556;49.374;19.446;2024-02-23T12:56:42;9.75;;;2.72;;
18853;SDS011;9556;49.374;19.446;2024-02-23T12:59:09;10.75;;;2.67;;
18853;SDS011;9556;49.374;19.446;2024-02-23T13:01:36;6.55;;;2.58;;
18853;SDS011;9556;49.374;19.446;2024-02-23T13:04:04;6.60;;;2.60;;
18853;SDS011;9556;49.374;19.446;2024-02-23T13:06:36;4.60;;;2.17;;
18853;SDS011;9556;49.374;19.446;2024-02-23T13:09:03;3.78;;;1.98;;
18853;SDS011;9556;49.374;19.446;2024-02-23T13:11:33;6.43;;;2.22;;
18853;SDS011;9556;49.374;19.446;2024-02-23T13:14:00;3.28;;;1.90;;
18853;SDS011;9556;49.374;19.446;2024-02-23T13:16:27;5.70;;;2.03;;
18853;SDS011;9556;49.374;19.446;2024-02-23T13:18:55;4.68;;;2.25;;
18853;SDS011;9556;49.374;19.446;2024-02-23T13:21:22;5.40;;;2.50;;
18853;SDS011;9556;49.374;19.446;2024-02-23T13:23:51;4.43;;;2.15;;
18853;SDS011;9556;49.374;19.446;2024-02-23T13:26:18;4.57;;;2.05;;
18853;SDS011;9556;49.374;19.446;2024-02-23T13:28:45;5.22;;;2.50;;
18853;SDS011;9556;49.374;19.446;2024-02-23T13:31:13;7.38;;;2.50;;
18853;SDS011;9556;49.374;19.446;2024-02-23T13:33:42;4.05;;;2.08;;
18853;SDS011;9556;49.374;19.446;2024-02-23T13:36:10;4.78;;;2.47;;
18853;SDS011;9556;49.374;19.446;2024-02-23T13:38:37;5.97;;;2.30;;
18853;SDS011;9556;49.374;19.446;2024-02-23T13:41:08;7.55;;;2.53;;
18853;SDS011;9556;49.374;19.446;2024-02-23T13:43:35;7.13;;;2.40;;
18853;SDS011;9556;49.374;19.446;2024-02-23T13:46:03;3.33;;;1.90;;
18853;SDS011;9556;49.374;19.446;2024-02-23T13:48:30;8.50;;;2.53;;
18853;SDS011;9556;49.374;19.446;2024-02-23T13:50:57;4.05;;;2.20;;
18853;SDS011;9556;49.374;19.446;2024-02-23T13:53:28;5.95;;;2.17;;
18853;SDS011;9556;49.374;19.446;2024-02-23T13:55:55;5.93;;;2.25;;
18853;SDS011;9556;49.374;19.446;2024-02-23T13:58:24;7.80;;;2.08;;
18853;SDS011;9556;49.374;19.446;2024-02-23T14:00:52;2.50;;;1.83;;
18853;SDS011;9556;49.374;19.446;2024-02-23T14:03:19;2.45;;;1.30;;
18853;SDS011;9556;49.374;19.446;2024-02-23T14:05:48;3.22;;;1.20;;
18853;SDS011;9556;49.374;19.446;2024-02-23T14:08:15;6.03;;;1.88;;
18853;SDS011;9556;49.374;19.446;2024-02-23T14:10:42;2.30;;;1.35;;
18853;SDS011;9556;49.374;19.446;2024-02-23T14:13:10;3.50;;;1.60;;
18853;SDS011;9556;49.374;19.446;2024-02-23T14:15:39;3.58;;;1.60;;
18853;SDS011;9556;49.374;19.446;2024-02-23T14:18:06;9.05;;;1.77;;
18853;SDS011;9556;49.374;19.446;2024-02-23T14:20:33;6.18;;;2.08;;
18853;SDS011;9556;49.374;19.446;2024-02-23T14:22:59;5.93;;;1.85;;
18853;SDS011;9556;49.374;19.446;2024-02-23T14:25:26;6.63;;;1.90;;
18853;SDS011;9556;49.374;19.446;2024-02-23T14:27:53;4.43;;;1.80;;
18853;SDS011;9556;49.374;19.446;2024-02-23T14:30:21;3.10;;;1.77;;
18853;SDS011;9556;49.374;19.446;2024-02-23T14:32:50;2.47;;;1.48;;
18853;SDS011;9556;49.374;19.446;2024-02-23T14:35:17;3.03;;;2.00;;
18853;SDS011;9556;49.374;19.446;2024-02-23T14:37:44;3.30;;;1.75;;
18853;SDS011;9556;49.374;19.446;2024-02-23T14:40:11;4.10;;;2.28;;
18853;SDS011;9556;49.374;19.446;2024-02-23T14:42:40;5.65;;;3.47;;
18853;SDS011;9556;49.374;19.446;2024-02-23T14:45:07;3.60;;;2.40;;
18853;SDS011;9556;49.374;19.446;2024-02-23T14:47:37;3.85;;;2.30;;
18853;SDS011;9556;49.374;19.446;2024-02-23T14:50:06;4.88;;;3.00;;